createdAt,value
2023-04-27T00:04:25.658Z,5.89
2023-04-27T00:10:36.212Z,5.98
2023-04-27T00:20:29.159Z,6.14
2023-04-27T00:25:25.708Z,6.21
2023-04-27T00:31:36.564Z,6.31
2023-04-27T00:36:32.873Z,6.28
2023-04-27T00:41:29.403Z,6.23
2023-04-27T00:52:36.644Z,6.47
2023-04-27T00:57:33.134Z,6.38
2023-04-27T01:02:29.785Z,6.42
2023-04-27T01:07:26.393Z,6.46
2023-04-27T01:12:31.007Z,6.34
2023-04-27T01:17:27.490Z,6.4
2023-04-27T01:23:38.154Z,6.43
2023-04-27T01:28:34.697Z,6.44
2023-04-27T01:33:31.171Z,6.47
2023-04-27T01:38:27.819Z,6.37
2023-04-27T01:44:38.408Z,6.58
2023-04-27T01:49:34.933Z,6.63
2023-04-27T01:54:31.445Z,6.7
2023-04-27T01:59:28.012Z,6.61
2023-04-27T02:05:38.661Z,6.7
2023-04-27T02:10:35.204Z,6.77
2023-04-27T02:15:31.699Z,6.63
2023-04-27T02:20:28.322Z,6.86
2023-04-27T02:26:38.914Z,6.92
2023-04-27T02:36:31.977Z,7.01
2023-04-27T02:41:28.550Z,7.18
2023-04-27T02:47:39.218Z,7.21
2023-04-27T02:52:35.807Z,7.26
2023-04-27T02:57:32.352Z,7.1
2023-04-27T03:02:28.860Z,7.34
2023-04-27T03:07:25.340Z,7.26
2023-04-27T03:13:36.100Z,7.32
2023-04-27T03:18:32.585Z,7.3
2023-04-27T03:23:29.053Z,7.3
2023-04-27T03:28:25.692Z,7.2
2023-04-27T03:34:36.529Z,7.16
2023-04-27T03:39:32.831Z,7.2
2023-04-27T03:44:29.350Z,7.2
2023-04-27T03:49:26.059Z,7.16
2023-04-27T03:55:36.719Z,7.11
2023-04-27T04:00:33.054Z,7.02
2023-04-27T04:05:29.594Z,7.06
2023-04-27T04:10:26.192Z,7.02
2023-04-27T04:16:36.821Z,7.02
2023-04-27T04:19:05.139Z,7.02
2023-04-27T04:21:33.334Z,7.06
2023-04-27T04:26:29.848Z,7.16
2023-04-27T04:31:26.464Z,7.16
2023-04-27T04:37:37.020Z,7.11
2023-04-27T04:42:33.582Z,7.2
2023-04-27T04:47:30.122Z,7.11
2023-04-27T04:52:26.660Z,7.02
2023-04-27T04:58:37.285Z,7.02
2023-04-27T05:03:34.187Z,6.92
2023-04-27T05:08:30.405Z,6.97
2023-04-27T05:19:37.560Z,7.11
2023-04-27T05:24:34.186Z,7.11
2023-04-27T05:29:30.609Z,7.25
2023-04-27T05:34:27.191Z,7.35
2023-04-27T05:40:37.798Z,7.4
2023-04-27T05:45:34.480Z,7.44
2023-04-27T05:50:30.903Z,7.49
2023-04-27T05:55:27.526Z,7.43
2023-04-27T06:01:38.134Z,7.42
2023-04-27T06:06:34.771Z,7.49
2023-04-27T06:11:31.168Z,7.51
2023-04-27T06:16:27.914Z,7.56
2023-04-27T06:22:38.362Z,7.34
2023-04-27T06:27:34.901Z,7.35
2023-04-27T06:32:31.463Z,7.13
2023-04-27T06:37:27.982Z,7.01
2023-04-27T06:43:38.626Z,6.84
2023-04-27T06:48:35.171Z,7.02
2023-04-27T06:53:31.707Z,6.73
2023-04-27T06:58:28.324Z,6.84
2023-04-27T07:03:25.024Z,6.96
2023-04-27T07:09:35.475Z,6.67
2023-04-27T07:14:32.014Z,6.43
2023-04-27T07:19:28.518Z,6.42
2023-04-27T07:25:39.183Z,6.5
2023-04-27T07:30:35.804Z,6.25
2023-04-27T07:35:32.213Z,6.08
2023-04-27T07:40:28.762Z,6.07
2023-04-27T07:45:25.358Z,6.16
2023-04-27T07:51:35.969Z,6.04
2023-04-27T07:56:32.523Z,6.08
2023-04-27T08:01:29.012Z,5.61
2023-04-27T08:07:44.366Z,5.66
2023-04-27T08:12:36.368Z,5.66
2023-04-27T08:17:32.857Z,5.59
2023-04-27T08:22:29.299Z,5.72
2023-04-27T08:27:25.833Z,5.82
2023-04-27T08:33:36.678Z,5.39
2023-04-27T08:38:33.004Z,5.62
2023-04-27T08:43:29.549Z,5.56
2023-04-27T08:48:26.268Z,5.73
2023-04-27T08:54:36.984Z,5.25
2023-04-27T08:59:33.342Z,5.6
2023-04-27T09:04:29.872Z,5.67
2023-04-27T09:09:26.471Z,5.5
2023-04-27T09:15:37.106Z,5.7
2023-04-27T09:20:33.570Z,5.36
2023-04-27T09:25:30.408Z,5.64
2023-04-27T09:30:26.712Z,5.82
2023-04-27T09:36:37.282Z,5.61
2023-04-27T09:41:33.787Z,5.25
2023-04-27T09:46:30.368Z,5.42
2023-04-27T09:51:26.934Z,5.37
2023-04-27T09:57:37.533Z,5.56
2023-04-27T10:02:46.276Z,5.41
2023-04-27T10:07:30.572Z,5.4
2023-04-27T10:12:27.193Z,5.41
2023-04-27T10:18:37.761Z,5.26
2023-04-27T10:23:34.388Z,5.78
2023-04-27T10:28:30.921Z,5.87
2023-04-27T10:33:27.509Z,5.44
2023-04-27T10:39:47.965Z,5.58
2023-04-27T10:44:34.618Z,5.58
2023-04-27T10:49:31.185Z,5.49
2023-04-27T10:54:27.670Z,5.16
2023-04-27T11:00:38.330Z,5.52
2023-04-27T11:05:34.897Z,5.91
2023-04-27T11:10:31.362Z,5.76
2023-04-27T11:15:27.992Z,5.87
2023-04-27T11:21:38.607Z,5.59
2023-04-27T11:26:35.171Z,5.79
2023-04-27T11:31:31.698Z,5.5
2023-04-27T11:36:28.271Z,5.57
2023-04-27T11:42:38.845Z,5.64
2023-04-27T11:47:35.384Z,5.74
2023-04-27T11:52:31.936Z,6.08
2023-04-27T11:57:28.490Z,5.93
2023-04-27T12:03:39.279Z,5.67
2023-04-27T12:08:35.673Z,5.77
2023-04-27T12:13:32.277Z,6.12
2023-04-27T12:18:28.718Z,6
2023-04-27T12:24:39.414Z,6.32
2023-04-27T12:29:36.014Z,6.07
2023-04-27T12:34:32.510Z,6.36
2023-04-27T12:39:29.017Z,6.14
2023-04-27T12:44:25.629Z,5.99
2023-04-27T12:50:36.201Z,6.69
2023-04-27T13:00:29.294Z,7
2023-04-27T13:05:25.862Z,7.05
2023-04-27T13:11:36.660Z,7.04
2023-04-27T13:16:33.142Z,6.13
2023-04-27T13:21:29.553Z,6.62
2023-04-27T13:26:26.086Z,6.87
2023-04-27T13:32:37.017Z,6.79
2023-04-27T13:36:27.356Z,6.04
2023-04-27T13:42:37.945Z,6.05
2023-04-27T13:47:34.540Z,6.16
2023-04-27T13:52:31.062Z,6.47
2023-04-27T13:57:27.769Z,7.21
2023-04-27T14:03:39.816Z,6.72
2023-04-27T14:08:34.781Z,7.01
2023-04-27T14:13:31.331Z,6.66
2023-04-27T14:18:32.569Z,6.74
2023-04-27T14:24:38.511Z,6.26
2023-04-27T14:29:35.037Z,6.31
2023-04-27T14:34:31.579Z,6.61
2023-04-27T14:39:28.110Z,6.78
2023-04-27T14:45:50.323Z,6.53
2023-04-27T14:50:35.372Z,7.03
2023-04-27T14:55:31.907Z,6.78
2023-04-27T15:00:28.462Z,7.02
2023-04-27T15:05:25.015Z,5.96
2023-04-27T15:11:35.636Z,6.65
2023-04-27T15:16:32.370Z,6.57
2023-04-27T15:21:28.676Z,6.45
2023-04-27T15:27:39.382Z,6.68
2023-04-27T15:32:35.991Z,6.46
2023-04-27T15:37:32.537Z,6.71
2023-04-27T15:42:28.932Z,6.74
2023-04-27T15:48:39.596Z,6.93
2023-04-27T15:53:36.148Z,7.25
2023-04-27T15:58:32.756Z,6.42
2023-04-27T16:03:29.378Z,6.16
2023-04-27T16:08:25.761Z,6.37
2023-04-27T16:14:36.440Z,6.34
2023-04-27T16:19:32.926Z,6.44
2023-04-27T16:24:29.482Z,6.38
2023-04-27T16:35:36.851Z,6.26
2023-04-27T16:40:33.220Z,6.16
2023-04-27T16:45:29.752Z,6.25
2023-04-27T16:50:26.327Z,6.15
2023-04-27T16:56:37.134Z,6.14
2023-04-27T17:01:33.670Z,6.18
2023-04-27T17:06:30.041Z,6.13
2023-04-27T17:11:26.652Z,6.09
2023-04-27T17:17:37.509Z,6.01
2023-04-27T17:22:33.773Z,6.02
2023-04-27T17:27:30.262Z,6.07
2023-04-27T17:32:26.993Z,5.97
2023-04-27T17:38:37.584Z,5.89
2023-04-27T17:43:34.063Z,5.88
2023-04-27T17:48:30.693Z,6.05
2023-04-27T17:53:27.097Z,6.08
2023-04-27T17:59:37.749Z,6.12
2023-04-27T18:04:34.444Z,6.09
2023-04-27T18:09:32.725Z,5.97
2023-04-27T18:14:27.362Z,5.98
2023-04-27T18:20:38.004Z,5.95
2023-04-27T18:25:34.632Z,6.03
2023-04-27T18:30:31.054Z,5.94
2023-04-27T18:35:27.650Z,6.02
2023-04-27T18:41:38.265Z,5.98
2023-04-27T18:46:34.884Z,5.98
2023-04-27T18:51:31.359Z,6.06
2023-04-27T18:56:27.901Z,6.05
2023-04-27T19:02:38.758Z,5.97
2023-04-27T19:07:35.183Z,6
2023-04-27T19:12:31.613Z,5.97
2023-04-27T19:17:28.362Z,5.92
2023-04-27T19:23:38.812Z,5.97
2023-04-27T19:28:35.342Z,6.03
2023-04-27T19:33:31.894Z,5.95
2023-04-27T19:38:28.437Z,6.07
2023-04-27T19:44:39.114Z,6.04
2023-04-27T19:49:35.613Z,6.1
2023-04-27T19:54:32.128Z,6.01
2023-04-27T19:59:28.697Z,6.18
2023-04-27T20:04:25.437Z,6.12
2023-04-27T20:10:35.897Z,6.17
2023-04-27T20:15:32.522Z,6.18
2023-04-27T20:20:28.964Z,6.11
2023-04-27T20:25:25.461Z,6.14
2023-04-27T20:31:36.265Z,6.12
2023-04-27T20:36:32.791Z,6.11
2023-04-27T20:41:29.194Z,6.1
2023-04-27T20:46:25.858Z,6.1
2023-04-27T20:52:36.395Z,6.12
2023-04-27T20:57:33.003Z,6.19
2023-04-27T21:02:29.496Z,6.21
2023-04-27T21:13:36.696Z,6.25
2023-04-27T21:18:33.254Z,6.24
2023-04-27T21:23:29.729Z,6.3
2023-04-27T21:28:26.330Z,6.34
2023-04-27T21:34:37.214Z,6.31
2023-04-27T21:39:33.548Z,6.38
2023-04-27T21:44:29.987Z,6.35
2023-04-27T21:49:26.658Z,6.34
2023-04-27T21:54:31.277Z,6.37
2023-04-27T21:59:27.854Z,6.35
2023-04-27T22:05:38.416Z,6.36
2023-04-27T22:10:35.086Z,6.37
2023-04-27T22:15:31.522Z,6.34
2023-04-27T22:20:28.126Z,6.39
2023-04-27T22:26:38.730Z,6.37
2023-04-27T22:31:35.339Z,6.39
2023-04-27T22:36:31.786Z,6.34
2023-04-27T22:41:28.316Z,6.37
2023-04-27T22:47:39.063Z,6.43
2023-04-27T22:52:35.604Z,6.47
2023-04-27T22:57:32.149Z,6.45
2023-04-27T23:02:28.827Z,6.54
2023-04-27T23:07:25.324Z,6.58
2023-04-27T23:13:35.833Z,6.64
2023-04-27T23:18:32.328Z,6.53
2023-04-27T23:23:28.882Z,6.62
2023-04-27T23:29:39.536Z,6.78
2023-04-27T23:34:36.137Z,6.91
2023-04-27T23:39:32.702Z,6.89
2023-04-27T23:44:29.131Z,6.91
2023-04-27T23:49:25.730Z,6.86
2023-04-27T23:55:36.391Z,6.74
